Startpagina
METAR-TAF:

METAR-TAF

Vliegvelden :

Gibraltar Airport

Gibraltar, Gibraltar

breedte: 36-09N, lengte: 005-21W, hoogte: 5 m

Actueel weer

Dit bericht is 47 minuten geleden gemaakt, om 22:50 UTC
Wind 10 kt uit het westen
Temperatuur 19°C
Vochtigheid 73%
Druk 1013 hPa
Zicht 10 km of meer

METAR: LXGB 262250Z AUTO 28010KT 9999 // NCD 19/14 Q1013

Tijdstip: 01:37 (23:37 UTC)


TAF: ontbreekt

Waarnemingen en weersverwachtingen van meer dan 4000 vliegvelden (METAR en TAF).

De beschikbare stations zijn de gele en rode punten op de kaart.

Ga met uw muis naar het station om de naam te zien.

Klik dan om waarnemingen en weersverwachtingen te zien.

kaart wijzigen: klik op de groene knoppen met een zwart kruis om in te zoomen, op de groene knop met een streepje om uit te zoomen of op de groene pijlen voor aangrenzende kaarten.


METAR-TAF: